Rogers, New Mexico
Current Conditions -  °F | °C
As of 2:58 AM on Saturday 25 Oct 2014 (Local Time) from KCVS Reporting Station
Clear Clear  
Wind Chill: 61°   Ceiling: Unl
Heat Index: 61°   Visibility: 10mi
Dew Point: 49°   Wind: 9mph
Humidity: 64%   Direction: 260°W
Pressure: 30.2"   Gusts: NA
Location:  33.98°N, 103.23°W
Report Text: KCVS 250858Z AUTO 26008KT 10SM CLR 16/10 A3020 RMK AO2 SLP173 T01630095 58002 $
Loading
Personal Weather Stations






























Interactive Weather Map
Tropical Storm Tracking
New forecast layout! Learn more

10-Day Weather Forecast

Advertisements
Track Severe Weather on mobile